createdAt,value
2018-08-10T00:00:34.906Z,19.90
2018-08-10T00:03:03.111Z,20.00
2018-08-10T00:05:32.370Z,19.90
2018-08-10T00:08:00.543Z,19.90
2018-08-10T00:10:28.730Z,19.90
2018-08-10T00:12:56.964Z,19.80
2018-08-10T00:15:25.120Z,19.70
2018-08-10T00:17:53.299Z,19.70
2018-08-10T00:20:21.445Z,19.60
2018-08-10T00:22:49.576Z,19.70
2018-08-10T00:25:18.351Z,19.50
2018-08-10T00:27:46.484Z,19.50
2018-08-10T00:30:18.620Z,19.50
2018-08-10T00:32:48.096Z,19.30
2018-08-10T00:35:16.331Z,19.30
2018-08-10T00:37:45.380Z,19.30
2018-08-10T00:40:16.580Z,19.10
2018-08-10T00:42:44.834Z,19.10
2018-08-10T00:45:14.102Z,19.00
2018-08-10T00:47:43.054Z,19.00
2018-08-10T00:50:12.400Z,18.90
2018-08-10T00:52:40.660Z,18.90
2018-08-10T00:55:10.741Z,18.80
2018-08-10T00:57:38.879Z,18.70
2018-08-10T01:00:09.556Z,18.70
2018-08-10T01:02:37.940Z,18.70
2018-08-10T01:05:06.836Z,18.60
2018-08-10T01:07:35.242Z,18.60
2018-08-10T01:10:04.544Z,18.60
2018-08-10T01:12:32.688Z,18.60
2018-08-10T01:15:00.830Z,18.70
2018-08-10T01:17:28.988Z,18.50
2018-08-10T01:19:57.150Z,18.40
2018-08-10T01:22:25.290Z,18.40
2018-08-10T01:24:53.420Z,18.40
2018-08-10T01:27:27.008Z,18.30
2018-08-10T01:29:55.136Z,18.30
2018-08-10T01:32:23.264Z,18.20
2018-08-10T01:34:51.420Z,18.20
2018-08-10T01:37:19.567Z,18.10
2018-08-10T01:39:47.752Z,18.10
2018-08-10T01:42:15.932Z,18.10
2018-08-10T01:44:44.095Z,18.00
2018-08-10T01:47:12.260Z,18.00
2018-08-10T01:49:40.441Z,17.90
2018-08-10T01:52:08.579Z,17.90
2018-08-10T01:54:36.772Z,17.80
2018-08-10T01:57:04.951Z,17.70
2018-08-10T01:59:33.109Z,17.70
2018-08-10T02:02:01.338Z,17.70
2018-08-10T02:04:29.500Z,17.60
2018-08-10T02:06:57.700Z,17.50
2018-08-10T02:09:25.831Z,17.50
2018-08-10T02:11:54.004Z,17.50
2018-08-10T02:14:22.180Z,17.40
2018-08-10T02:16:50.349Z,17.40
2018-08-10T02:19:18.478Z,17.20
2018-08-10T02:21:46.605Z,17.30
2018-08-10T02:24:14.756Z,17.20
2018-08-10T02:26:42.959Z,17.20
2018-08-10T02:29:11.207Z,17.20
2018-08-10T02:31:39.394Z,17.10
2018-08-10T02:34:07.652Z,17.20
2018-08-10T02:36:35.796Z,17.00
2018-08-10T02:39:06.208Z,17.00
2018-08-10T02:41:34.339Z,17.00
2018-08-10T02:44:41.275Z,16.90
2018-08-10T02:47:09.409Z,16.80
2018-08-10T02:49:37.566Z,16.90
2018-08-10T02:52:05.962Z,16.80
2018-08-10T02:54:34.127Z,16.80
2018-08-10T02:57:02.253Z,16.70
2018-08-10T02:59:30.383Z,16.70
2018-08-10T03:01:58.525Z,16.60
2018-08-10T03:04:26.693Z,16.50
2018-08-10T03:06:54.933Z,16.50
2018-08-10T03:09:23.072Z,16.60
2018-08-10T03:11:51.239Z,16.50
2018-08-10T03:14:19.383Z,16.50
2018-08-10T03:16:47.527Z,16.40
2018-08-10T03:19:15.682Z,16.40
2018-08-10T03:21:43.910Z,16.40
2018-08-10T03:24:12.036Z,16.30
2018-08-10T03:26:40.211Z,16.30
2018-08-10T03:29:08.329Z,16.30
2018-08-10T03:31:36.459Z,16.20
2018-08-10T03:34:04.607Z,16.20
2018-08-10T03:36:32.747Z,16.20
2018-08-10T03:39:00.954Z,16.30
2018-08-10T03:41:29.136Z,16.30
2018-08-10T03:43:57.285Z,16.20
2018-08-10T03:46:25.412Z,16.30
2018-08-10T03:48:53.527Z,16.20
2018-08-10T03:51:21.695Z,16.20
2018-08-10T03:56:17.785Z,16.20
2018-08-10T03:58:45.911Z,16.20
2018-08-10T04:01:14.085Z,16.20
2018-08-10T04:03:42.217Z,16.30
2018-08-10T04:06:10.359Z,16.20
2018-08-10T04:08:38.533Z,16.20
2018-08-10T04:11:06.720Z,16.20
2018-08-10T04:13:34.884Z,16.20
2018-08-10T04:16:03.131Z,16.20
2018-08-10T04:18:31.366Z,16.20
2018-08-10T04:20:59.747Z,16.20
2018-08-10T04:23:27.916Z,16.30
2018-08-10T04:25:56.031Z,16.10
2018-08-10T04:28:24.200Z,16.10
2018-08-10T04:30:52.376Z,16.10
2018-08-10T04:33:20.582Z,16.10
2018-08-10T04:35:48.753Z,16.10
2018-08-10T04:38:16.913Z,16.30
2018-08-10T04:40:45.168Z,16.30
2018-08-10T04:43:13.311Z,16.20
2018-08-10T04:45:41.451Z,16.20
2018-08-10T04:48:09.770Z,16.30
2018-08-10T04:50:37.897Z,16.40
2018-08-10T04:53:06.062Z,16.40
2018-08-10T04:55:34.243Z,16.30
2018-08-10T04:58:02.386Z,16.30
2018-08-10T05:00:30.532Z,16.20
2018-08-10T05:02:58.673Z,16.40
2018-08-10T05:05:26.827Z,16.30
2018-08-10T05:07:54.940Z,16.30
2018-08-10T05:10:23.142Z,16.50
2018-08-10T05:12:51.243Z,16.70
2018-08-10T05:15:19.391Z,16.60
2018-08-10T05:17:47.516Z,16.50
2018-08-10T05:20:15.674Z,16.60
2018-08-10T05:22:44.136Z,16.40
2018-08-10T05:25:12.290Z,16.40
2018-08-10T05:27:40.418Z,16.40
2018-08-10T05:30:09.315Z,16.50
2018-08-10T05:32:37.478Z,16.60
2018-08-10T05:35:06.357Z,16.50
2018-08-10T05:37:34.505Z,16.50
2018-08-10T05:40:02.667Z,16.70
2018-08-10T05:42:30.815Z,16.90
2018-08-10T05:44:58.963Z,16.90
2018-08-10T05:47:27.119Z,16.70
2018-08-10T05:49:55.287Z,16.70
2018-08-10T05:52:23.507Z,16.70
2018-08-10T05:54:51.776Z,16.60
2018-08-10T05:57:19.990Z,16.60
2018-08-10T05:59:48.149Z,16.70
2018-08-10T06:02:16.300Z,16.70
2018-08-10T06:04:44.507Z,16.70
2018-08-10T06:07:12.770Z,16.60
2018-08-10T06:09:40.969Z,16.90
2018-08-10T06:12:09.109Z,16.70
2018-08-10T06:14:37.311Z,16.60
2018-08-10T06:17:05.669Z,16.60
2018-08-10T06:19:33.877Z,16.60
2018-08-10T06:22:02.176Z,16.70
2018-08-10T06:24:30.299Z,16.70
2018-08-10T06:26:58.433Z,16.80
2018-08-10T06:29:26.578Z,16.90
2018-08-10T06:31:54.765Z,16.80
2018-08-10T06:34:22.914Z,16.80
2018-08-10T06:36:51.169Z,16.80
2018-08-10T06:39:19.327Z,16.90
2018-08-10T06:41:47.551Z,16.90
2018-08-10T06:44:15.717Z,16.90
2018-08-10T06:46:43.840Z,17.20
2018-08-10T06:49:11.968Z,17.20
2018-08-10T06:51:40.248Z,17.00
2018-08-10T06:54:08.396Z,17.00
2018-08-10T06:56:36.507Z,17.00
2018-08-10T06:59:04.694Z,17.10
2018-08-10T07:01:32.894Z,17.20
2018-08-10T07:04:00.999Z,17.20
2018-08-10T07:06:29.168Z,17.20
2018-08-10T07:08:57.558Z,17.20
2018-08-10T07:11:25.702Z,17.20
2018-08-10T07:13:53.891Z,17.30
2018-08-10T07:16:22.011Z,17.40
2018-08-10T07:18:50.235Z,17.40
2018-08-10T07:21:19.260Z,17.30
2018-08-10T07:23:47.393Z,17.40
2018-08-10T07:26:15.517Z,17.40
2018-08-10T07:28:43.635Z,17.50
2018-08-10T07:31:11.790Z,17.50
2018-08-10T07:33:39.951Z,17.50
2018-08-10T07:36:08.060Z,17.50
2018-08-10T07:38:36.276Z,17.70
2018-08-10T07:41:04.349Z,17.70
2018-08-10T07:43:32.559Z,17.70
2018-08-10T07:46:00.694Z,17.70
2018-08-10T07:48:28.848Z,17.70
2018-08-10T07:50:57.003Z,17.70
2018-08-10T07:53:25.140Z,18.00
2018-08-10T07:55:53.338Z,18.00
2018-08-10T07:58:21.457Z,18.00
2018-08-10T08:00:49.588Z,18.00
2018-08-10T08:03:17.826Z,18.20
2018-08-10T08:05:45.959Z,18.10
2018-08-10T08:08:14.146Z,18.10
2018-08-10T08:10:42.426Z,18.00
2018-08-10T08:13:10.559Z,18.10
2018-08-10T08:15:38.767Z,18.10
2018-08-10T08:18:07.035Z,18.20
2018-08-10T08:20:36.711Z,18.30
2018-08-10T08:23:05.405Z,18.30
2018-08-10T08:25:33.592Z,18.30
2018-08-10T08:28:01.796Z,18.40
2018-08-10T08:30:30.027Z,18.60
2018-08-10T08:35:26.111Z,18.50
2018-08-10T08:37:59.785Z,18.70
2018-08-10T08:40:28.001Z,19.00
2018-08-10T08:42:56.229Z,18.90
2018-08-10T08:46:08.231Z,18.90
2018-08-10T08:48:53.124Z,19.00
2018-08-10T08:51:26.634Z,19.10
2018-08-10T08:54:06.435Z,19.40
2018-08-10T08:56:42.760Z,19.20
2018-08-10T08:59:10.904Z,19.30
2018-08-10T09:01:39.152Z,19.30
2018-08-10T09:04:21.391Z,19.40
2018-08-10T09:06:49.499Z,19.40
2018-08-10T09:09:29.110Z,19.20
2018-08-10T09:11:57.228Z,19.30
2018-08-10T09:14:42.674Z,19.20
2018-08-10T09:17:11.499Z,19.30
2018-08-10T09:19:40.793Z,19.30
2018-08-10T09:22:09.094Z,19.40
2018-08-10T09:24:37.368Z,19.80
2018-08-10T09:27:05.726Z,19.50
2018-08-10T09:29:34.567Z,19.60
2018-08-10T09:32:02.935Z,19.50
2018-08-10T09:34:31.340Z,19.50
2018-08-10T09:37:00.149Z,19.50
2018-08-10T09:39:28.848Z,19.70
2018-08-10T09:41:58.049Z,19.80
2018-08-10T09:44:26.374Z,19.50
2018-08-10T09:46:54.659Z,19.50
2018-08-10T09:49:23.125Z,19.70
2018-08-10T09:51:51.365Z,19.70
2018-08-10T09:54:19.923Z,19.90
2018-08-10T09:56:48.294Z,20.20
2018-08-10T09:59:16.508Z,20.30
2018-08-10T10:01:50.148Z,20.30
2018-08-10T10:04:18.286Z,20.30
2018-08-10T10:06:46.396Z,20.40
2018-08-10T10:09:14.554Z,20.20
2018-08-10T10:11:42.681Z,20.20
2018-08-10T10:14:11.108Z,20.20
2018-08-10T10:16:39.570Z,20.30
2018-08-10T10:19:07.887Z,20.50
2018-08-10T10:21:36.053Z,20.50
2018-08-10T10:24:04.290Z,20.50
2018-08-10T10:26:32.596Z,20.50
2018-08-10T10:29:00.905Z,21.00
2018-08-10T10:31:29.096Z,21.10
2018-08-10T10:33:57.317Z,21.10
2018-08-10T10:36:25.798Z,21.20
2018-08-10T10:38:54.031Z,21.10
2018-08-10T10:41:22.274Z,21.00
2018-08-10T10:43:50.722Z,20.80
2018-08-10T10:46:19.115Z,21.00
2018-08-10T10:48:47.505Z,21.00
2018-08-10T10:51:15.638Z,21.00
2018-08-10T10:53:43.772Z,21.00
2018-08-10T10:56:11.910Z,20.90
2018-08-10T10:58:40.125Z,20.80
2018-08-10T11:01:08.442Z,20.80
2018-08-10T11:06:05.431Z,21.30
2018-08-10T11:08:33.673Z,21.50
2018-08-10T11:11:01.960Z,21.40
2018-08-10T11:13:30.315Z,21.40
2018-08-10T11:15:58.771Z,21.70
2018-08-10T11:18:27.108Z,21.60
2018-08-10T11:20:55.353Z,21.70
2018-08-10T11:23:23.775Z,21.70
2018-08-10T11:25:52.225Z,21.80
2018-08-10T11:28:20.674Z,21.70
2018-08-10T11:30:48.915Z,21.30
2018-08-10T11:33:17.083Z,21.50
2018-08-10T11:35:45.652Z,21.50
2018-08-10T11:38:14.020Z,21.80
2018-08-10T11:40:42.270Z,21.70
2018-08-10T11:43:10.627Z,21.90
2018-08-10T11:45:39.085Z,22.10
2018-08-10T11:48:07.421Z,21.80
2018-08-10T11:50:35.573Z,21.80
2018-08-10T11:53:03.790Z,21.80
2018-08-10T11:55:32.087Z,21.80
2018-08-10T11:58:00.320Z,22.00
2018-08-10T12:00:28.769Z,22.10
2018-08-10T12:02:57.187Z,22.00
2018-08-10T12:05:25.311Z,22.20
2018-08-10T12:07:53.627Z,21.80
2018-08-10T12:10:21.937Z,22.20
2018-08-10T12:12:50.386Z,22.40
2018-08-10T12:15:18.629Z,22.60
2018-08-10T12:17:46.733Z,22.40
2018-08-10T12:20:14.866Z,22.40
2018-08-10T12:22:43.093Z,22.50
2018-08-10T12:25:11.241Z,22.70
2018-08-10T12:27:39.410Z,22.90
2018-08-10T12:30:10.613Z,22.60
2018-08-10T12:32:38.962Z,22.50
2018-08-10T12:35:07.841Z,22.50
2018-08-10T12:37:36.021Z,22.60
2018-08-10T12:40:04.684Z,23.00
2018-08-10T12:42:32.965Z,23.00
2018-08-10T12:45:01.226Z,23.10
2018-08-10T12:47:29.631Z,23.00
2018-08-10T12:49:58.051Z,22.90
2018-08-10T12:52:26.291Z,22.70
2018-08-10T12:54:54.494Z,22.60
2018-08-10T12:57:22.827Z,22.60
2018-08-10T12:59:51.024Z,22.70
2018-08-10T13:02:19.224Z,22.70
2018-08-10T13:07:22.155Z,22.90
2018-08-10T13:09:50.431Z,23.10
2018-08-10T13:12:18.615Z,23.00
2018-08-10T13:14:46.790Z,22.80
2018-08-10T13:17:15.502Z,22.70
2018-08-10T13:19:43.692Z,22.80
2018-08-10T13:22:11.897Z,23.00
2018-08-10T13:24:40.067Z,23.00
2018-08-10T13:27:08.292Z,23.30
2018-08-10T13:32:04.609Z,23.00
2018-08-10T13:34:32.863Z,23.00
2018-08-10T13:37:01.062Z,23.30
2018-08-10T13:39:36.711Z,23.30
2018-08-10T13:42:04.926Z,23.30
2018-08-10T13:44:33.260Z,23.40
2018-08-10T13:47:01.396Z,23.40
2018-08-10T13:49:29.575Z,23.40
2018-08-10T13:51:57.784Z,23.20
2018-08-10T13:56:53.864Z,23.30
2018-08-10T13:59:22.007Z,23.20
2018-08-10T14:01:50.149Z,23.10
2018-08-10T14:04:18.269Z,23.10
2018-08-10T14:06:46.435Z,23.10
2018-08-10T14:09:14.548Z,23.10
2018-08-10T14:11:42.693Z,23.00
2018-08-10T14:14:10.799Z,22.80
2018-08-10T14:16:38.911Z,22.90
2018-08-10T14:19:07.081Z,22.90
2018-08-10T14:21:35.319Z,22.90
2018-08-10T14:24:03.486Z,23.00
2018-08-10T14:26:31.630Z,22.90
2018-08-10T14:28:59.771Z,23.10
2018-08-10T14:31:27.881Z,23.40
2018-08-10T14:33:56.040Z,24.70
2018-08-10T14:36:24.205Z,26.60
2018-08-10T14:38:52.447Z,26.60
2018-08-10T14:41:20.665Z,26.40
2018-08-10T14:43:48.712Z,25.90
2018-08-10T14:46:16.864Z,24.30
2018-08-10T14:48:44.984Z,24.40
2018-08-10T14:51:13.083Z,24.90
2018-08-10T14:53:41.217Z,25.20
2018-08-10T14:56:09.312Z,24.90
2018-08-10T14:58:37.449Z,25.30
2018-08-10T15:01:05.629Z,25.10
2018-08-10T15:03:34.043Z,25.30
2018-08-10T15:06:02.329Z,25.20
2018-08-10T15:08:30.480Z,25.60
2018-08-10T15:10:58.574Z,25.80
2018-08-10T15:13:26.712Z,25.90
2018-08-10T15:15:54.811Z,26.10
2018-08-10T15:18:22.995Z,26.30
2018-08-10T15:20:51.151Z,26.40
2018-08-10T15:23:19.260Z,26.50
2018-08-10T15:25:47.455Z,26.40
2018-08-10T15:28:15.578Z,26.50
2018-08-10T15:30:43.756Z,26.60
2018-08-10T15:33:11.809Z,26.20
2018-08-10T15:35:39.937Z,26.60
2018-08-10T15:38:08.059Z,26.70
2018-08-10T15:40:36.156Z,25.50
2018-08-10T15:43:04.275Z,24.90
2018-08-10T15:45:32.402Z,26.10
2018-08-10T15:48:00.516Z,27.40
2018-08-10T15:50:28.644Z,28.20
2018-08-10T15:52:56.771Z,27.20
2018-08-10T15:55:24.895Z,25.70
2018-08-10T15:57:53.012Z,25.60
2018-08-10T16:00:22.459Z,28.20
2018-08-10T16:02:50.613Z,29.40
2018-08-10T16:05:20.882Z,27.40
2018-08-10T16:07:49.010Z,27.30
2018-08-10T16:10:17.168Z,27.90
2018-08-10T16:12:45.292Z,29.00
2018-08-10T16:15:14.737Z,29.60
2018-08-10T16:17:42.912Z,30.20
2018-08-10T16:20:12.931Z,29.50
2018-08-10T16:22:41.029Z,29.30
2018-08-10T16:25:10.544Z,26.40
2018-08-10T16:27:38.970Z,25.30
2018-08-10T16:30:08.907Z,28.10
2018-08-10T16:32:37.383Z,26.90
2018-08-10T16:35:06.589Z,26.70
2018-08-10T16:37:34.792Z,24.80
2018-08-10T16:40:03.035Z,24.70
2018-08-10T16:42:31.176Z,24.60
2018-08-10T16:44:59.302Z,24.40
2018-08-10T16:47:27.460Z,25.00
2018-08-10T16:49:55.623Z,24.60
2018-08-10T16:52:23.852Z,25.80
2018-08-10T16:54:51.969Z,27.50
2018-08-10T16:57:20.123Z,28.60
2018-08-10T16:59:48.244Z,28.80
2018-08-10T17:02:16.468Z,29.30
2018-08-10T17:04:44.602Z,29.20
2018-08-10T17:07:12.709Z,29.40
2018-08-10T17:09:40.831Z,29.40
2018-08-10T17:12:09.583Z,28.40
2018-08-10T17:14:37.695Z,28.70
2018-08-10T17:17:05.896Z,28.70
2018-08-10T17:19:34.243Z,24.80
2018-08-10T17:22:02.339Z,24.80
2018-08-10T17:24:30.661Z,24.50
2018-08-10T17:26:58.883Z,24.30
2018-08-10T17:29:27.035Z,25.30
2018-08-10T17:31:55.225Z,25.20
2018-08-10T17:34:23.380Z,25.20
2018-08-10T17:36:51.700Z,25.10
2018-08-10T17:39:19.872Z,25.90
2018-08-10T17:41:47.943Z,25.10
2018-08-10T17:44:16.183Z,24.80
2018-08-10T17:46:44.330Z,24.60
2018-08-10T17:49:12.432Z,24.40
2018-08-10T17:51:40.531Z,24.20
2018-08-10T17:54:08.691Z,24.30
2018-08-10T17:56:36.803Z,24.20
2018-08-10T17:59:05.278Z,24.20
2018-08-10T18:01:33.440Z,23.80
2018-08-10T18:04:01.588Z,23.60
2018-08-10T18:06:29.725Z,23.50
2018-08-10T18:09:07.750Z,23.40
2018-08-10T18:11:35.998Z,23.50
2018-08-10T18:14:04.423Z,23.40
2018-08-10T18:16:32.570Z,23.30
2018-08-10T18:19:00.761Z,23.30
2018-08-10T18:21:29.011Z,23.20
2018-08-10T18:23:57.163Z,23.00
2018-08-10T18:26:25.347Z,23.10
2018-08-10T18:28:53.659Z,23.00
2018-08-10T18:31:21.889Z,23.00
2018-08-10T18:33:50.036Z,23.00
2018-08-10T18:36:18.147Z,22.90
2018-08-10T18:38:46.268Z,22.90
2018-08-10T18:41:14.444Z,22.70
2018-08-10T18:43:42.590Z,22.70
2018-08-10T18:46:10.735Z,22.70
2018-08-10T18:48:38.878Z,22.60
2018-08-10T18:51:07.165Z,22.60
2018-08-10T18:53:35.284Z,22.60
2018-08-10T18:56:03.439Z,22.50
2018-08-10T18:58:31.577Z,22.40
2018-08-10T19:00:59.739Z,22.40
2018-08-10T19:03:27.864Z,22.30
2018-08-10T19:05:55.988Z,22.30
2018-08-10T19:08:24.137Z,22.30
2018-08-10T19:10:52.276Z,22.20
2018-08-10T19:13:20.430Z,22.20
2018-08-10T19:15:48.550Z,22.10
2018-08-10T19:18:16.731Z,22.10
2018-08-10T19:20:44.869Z,22.00
2018-08-10T19:23:13.026Z,22.00
2018-08-10T19:25:41.140Z,22.00
2018-08-10T19:28:09.330Z,22.00
2018-08-10T19:30:37.536Z,22.00
2018-08-10T19:33:05.823Z,21.90
2018-08-10T19:35:34.039Z,21.80
2018-08-10T19:38:02.201Z,21.80
2018-08-10T19:40:30.336Z,21.70
2018-08-10T19:42:58.499Z,21.70
2018-08-10T19:45:26.608Z,21.70
2018-08-10T19:47:54.741Z,21.70
2018-08-10T19:50:24.136Z,21.60
2018-08-10T19:52:52.874Z,21.50
2018-08-10T19:55:21.016Z,21.50
2018-08-10T19:57:49.180Z,21.40
2018-08-10T20:00:18.299Z,21.40
2018-08-10T20:02:47.305Z,21.40
2018-08-10T20:05:16.712Z,21.20
2018-08-10T20:07:44.924Z,21.20
2018-08-10T20:10:13.605Z,21.10
2018-08-10T20:12:41.744Z,21.10
2018-08-10T20:15:11.808Z,21.10
2018-08-10T20:17:40.115Z,21.00
2018-08-10T20:20:09.503Z,21.00
2018-08-10T20:22:37.707Z,21.10
2018-08-10T20:25:06.691Z,21.00
2018-08-10T20:27:35.064Z,21.00
2018-08-10T20:30:03.242Z,20.90
2018-08-10T20:32:31.345Z,20.90
2018-08-10T20:34:59.475Z,20.80
2018-08-10T20:37:27.631Z,20.80
2018-08-10T20:39:55.799Z,20.80
2018-08-10T20:42:23.941Z,20.70
2018-08-10T20:44:52.048Z,20.70
2018-08-10T20:47:20.227Z,20.60
2018-08-10T20:49:48.360Z,20.70
2018-08-10T20:52:16.523Z,20.60
2018-08-10T20:54:44.689Z,20.60
2018-08-10T20:57:12.808Z,20.50
2018-08-10T20:59:40.928Z,20.50
2018-08-10T21:02:09.134Z,20.40
2018-08-10T21:04:37.268Z,20.40
2018-08-10T21:07:05.398Z,20.40
2018-08-10T21:09:33.503Z,20.30
2018-08-10T21:12:01.660Z,20.20
2018-08-10T21:14:29.802Z,20.10
2018-08-10T21:16:58.040Z,20.10
2018-08-10T21:19:26.212Z,20.10
2018-08-10T21:21:54.490Z,20.10
2018-08-10T21:24:22.644Z,20.10
2018-08-10T21:26:50.798Z,20.10
2018-08-10T21:29:18.926Z,20.00
2018-08-10T21:31:47.053Z,20.10
2018-08-10T21:34:15.154Z,20.10
2018-08-10T21:36:43.290Z,20.10
2018-08-10T21:39:12.450Z,20.00
2018-08-10T21:41:40.643Z,20.00
2018-08-10T21:44:09.362Z,19.90
2018-08-10T21:46:37.467Z,19.90
2018-08-10T21:49:05.913Z,19.90
2018-08-10T21:51:34.223Z,19.90
2018-08-10T21:54:02.369Z,19.80
2018-08-10T21:56:30.514Z,19.80
2018-08-10T21:58:58.680Z,19.80
2018-08-10T22:01:26.803Z,19.80
2018-08-10T22:03:54.961Z,19.80
2018-08-10T22:06:23.087Z,19.70
2018-08-10T22:08:51.223Z,19.70
2018-08-10T22:11:19.333Z,19.70
2018-08-10T22:13:52.765Z,19.70
2018-08-10T22:16:26.399Z,19.70
2018-08-10T22:18:59.889Z,19.80
2018-08-10T22:21:28.054Z,20.00
2018-08-10T22:23:56.184Z,19.70
2018-08-10T22:26:24.328Z,19.70
2018-08-10T22:28:52.490Z,19.70
2018-08-10T22:31:20.633Z,19.70
2018-08-10T22:33:48.722Z,19.70
2018-08-10T22:36:16.879Z,19.70
2018-08-10T22:38:44.988Z,19.60
2018-08-10T22:41:13.124Z,19.60
2018-08-10T22:43:41.251Z,19.60
2018-08-10T22:46:09.372Z,19.60
2018-08-10T22:48:37.516Z,19.60
2018-08-10T22:51:05.656Z,19.60
2018-08-10T22:53:33.797Z,19.50
2018-08-10T22:56:01.912Z,19.50
2018-08-10T22:58:30.024Z,19.50
2018-08-10T23:00:58.190Z,19.50
2018-08-10T23:03:26.316Z,19.40
2018-08-10T23:05:54.408Z,19.40
2018-08-10T23:08:22.593Z,19.20
2018-08-10T23:10:50.681Z,19.20
2018-08-10T23:13:18.838Z,19.20
2018-08-10T23:15:46.963Z,19.20
2018-08-10T23:18:15.119Z,19.40
2018-08-10T23:20:43.276Z,19.30
2018-08-10T23:23:11.372Z,19.30
2018-08-10T23:25:39.511Z,19.20
2018-08-10T23:28:07.699Z,19.30
2018-08-10T23:30:35.918Z,19.30
2018-08-10T23:33:04.067Z,19.30
2018-08-10T23:35:32.300Z,19.30
2018-08-10T23:38:00.428Z,19.20
2018-08-10T23:40:28.602Z,19.00
2018-08-10T23:42:56.720Z,19.10
2018-08-10T23:45:24.844Z,19.00
2018-08-10T23:47:53.022Z,19.00
2018-08-10T23:50:21.142Z,19.00
2018-08-10T23:52:49.239Z,18.90
2018-08-10T23:55:18.474Z,18.90
2018-08-10T23:57:46.627Z,18.90
